PAL462 RPLL-RKPK
Flight info
| Callsign | PAL462 |
|---|---|
| Flight time | N/A |
| Altitude | 35000 |
| Route | CAB2R CAB N884 ALBAX Y531 YURIX Y62 BOMAP Y25 GOKYO/N0458F360 Y25 IKE DCT INVOK PEDLO1 |
| Aircraft | A321/M-SDE3FGHIRWY/LB1 |
Departure
| Time | 2026-05-06 07:51 |
|---|---|
| Airport | Ninoy Aquino International Airport (RPLL) |
Arrival
| Time | N/A |
|---|---|
| Airport | Gimhae International Airport (RKPK) |
| Time | Latitude | Longitude | Altitude | Speed | Heading |
|---|---|---|---|---|---|
| 2026-05-06 07:02 | 14.50347 | 121.00435 | 84 ft | 0 kts | 18° |
| 2026-05-06 07:36 | 14.50334 | 121.00430 | 84 ft | 2 kts | 18° |
| 2026-05-06 07:36 | 14.50320 | 121.00426 | 84 ft | 2 kts | 18° |
| 2026-05-06 07:37 | 14.50309 | 121.00422 | 84 ft | 0 kts | 18° |
| 2026-05-06 07:37 | 14.50297 | 121.00419 | 84 ft | 2 kts | 353° |
| 2026-05-06 07:37 | 14.50283 | 121.00423 | 84 ft | 2 kts | 324° |
| 2026-05-06 07:37 | 14.50274 | 121.00436 | 84 ft | 2 kts | 292° |
| 2026-05-06 07:38 | 14.50271 | 121.00451 | 84 ft | 2 kts | 262° |
| 2026-05-06 07:38 | 14.50274 | 121.00461 | 84 ft | 1 kts | 240° |
| 2026-05-06 07:38 | 14.50278 | 121.00467 | 84 ft | 0 kts | 239° |
| 2026-05-06 07:43 | 14.50277 | 121.00466 | 84 ft | 1 kts | 239° |
| 2026-05-06 07:43 | 14.50259 | 121.00434 | 84 ft | 8 kts | 240° |
| 2026-05-06 07:44 | 14.50239 | 121.00396 | 84 ft | 6 kts | 242° |
| 2026-05-06 07:44 | 14.50219 | 121.00357 | 84 ft | 6 kts | 242° |
| 2026-05-06 07:44 | 14.50200 | 121.00330 | 84 ft | 1 kts | 209° |
| 2026-05-06 07:44 | 14.50198 | 121.00330 | 84 ft | 0 kts | 203° |
| 2026-05-06 07:45 | 14.50186 | 121.00328 | 84 ft | 4 kts | 180° |
| 2026-05-06 07:45 | 14.50142 | 121.00334 | 84 ft | 6 kts | 186° |
| 2026-05-06 07:45 | 14.50106 | 121.00307 | 84 ft | 6 kts | 238° |
| 2026-05-06 07:45 | 14.50082 | 121.00262 | 84 ft | 7 kts | 240° |
| 2026-05-06 07:46 | 14.50052 | 121.00206 | 84 ft | 10 kts | 240° |
| 2026-05-06 07:46 | 14.50011 | 121.00133 | 84 ft | 12 kts | 240° |
| 2026-05-06 07:46 | 14.49968 | 121.00056 | 84 ft | 12 kts | 240° |
| 2026-05-06 07:46 | 14.49928 | 120.99985 | 84 ft | 10 kts | 238° |
| 2026-05-06 07:47 | 14.49883 | 120.99964 | 84 ft | 3 kts | 161° |
| 2026-05-06 07:47 | 14.49881 | 120.99964 | 84 ft | 0 kts | 160° |
| 2026-05-06 07:47 | 14.49879 | 120.99966 | 84 ft | 1 kts | 160° |
| 2026-05-06 07:48 | 14.49847 | 120.99981 | 84 ft | 7 kts | 150° |
| 2026-05-06 07:48 | 14.49805 | 121.00010 | 84 ft | 7 kts | 134° |
| 2026-05-06 07:48 | 14.49809 | 121.00057 | 84 ft | 7 kts | 60° |
| 2026-05-06 07:48 | 14.49821 | 121.00080 | 84 ft | 0 kts | 60° |
| 2026-05-06 07:50 | 14.49834 | 121.00103 | 84 ft | 17 kts | 60° |
| 2026-05-06 07:50 | 14.50019 | 121.00440 | 84 ft | 90 kts | 62° |
| 2026-05-06 07:51 | 14.50447 | 121.01205 | 84 ft | 152 kts | 60° |
| 2026-05-06 07:51 | 14.51011 | 121.02256 | 413 ft | 174 kts | 64° |
| 2026-05-06 07:51 | 14.51611 | 121.03319 | 1099 ft | 172 kts | 62° |
| 2026-05-06 07:51 | 14.52210 | 121.04366 | 1800 ft | 170 kts | 63° |
| 2026-05-06 07:52 | 14.52798 | 121.05423 | 2394 ft | 168 kts | 64° |
| 2026-05-06 07:52 | 14.53359 | 121.06471 | 2693 ft | 169 kts | 65° |
| 2026-05-06 07:52 | 14.53927 | 121.07556 | 2937 ft | 175 kts | 65° |
| 2026-05-06 07:52 | 14.54532 | 121.08672 | 3133 ft | 184 kts | 62° |
| 2026-05-06 07:53 | 14.55215 | 121.09820 | 3356 ft | 194 kts | 55° |
| 2026-05-06 07:53 | 14.56376 | 121.10598 | 3540 ft | 210 kts | 11° |
| 2026-05-06 07:53 | 14.57870 | 121.10551 | 3772 ft | 221 kts | 352° |
| 2026-05-06 07:53 | 14.59409 | 121.10263 | 4004 ft | 233 kts | 348° |
| 2026-05-06 07:54 | 14.61071 | 121.09972 | 4190 ft | 250 kts | 352° |
| 2026-05-06 07:54 | 14.62826 | 121.09721 | 4466 ft | 265 kts | 353° |
| 2026-05-06 07:54 | 14.64671 | 121.09517 | 4790 ft | 279 kts | 353° |
| 2026-05-06 07:54 | 14.66642 | 121.09323 | 5200 ft | 289 kts | 353° |
| 2026-05-06 07:55 | 14.68642 | 121.09131 | 5790 ft | 293 kts | 354° |
| 2026-05-06 07:55 | 14.70684 | 121.08955 | 6440 ft | 294 kts | 353° |
| 2026-05-06 07:55 | 14.72717 | 121.08781 | 7132 ft | 294 kts | 353° |
| 2026-05-06 07:55 | 14.74739 | 121.08607 | 7779 ft | 295 kts | 352° |
| 2026-05-06 07:56 | 14.76772 | 121.08433 | 8395 ft | 296 kts | 352° |
| 2026-05-06 07:56 | 14.78819 | 121.08258 | 9030 ft | 297 kts | 352° |
| 2026-05-06 07:56 | 14.80861 | 121.08084 | 9618 ft | 298 kts | 352° |
| 2026-05-06 07:56 | 14.82932 | 121.07909 | 10217 ft | 299 kts | 352° |
| 2026-05-06 07:57 | 14.85018 | 121.07732 | 10616 ft | 308 kts | 352° |
| 2026-05-06 07:57 | 14.87186 | 121.07546 | 10857 ft | 321 kts | 353° |
| 2026-05-06 07:57 | 14.89469 | 121.07351 | 11097 ft | 334 kts | 353° |
| 2026-05-06 07:57 | 14.91822 | 121.07151 | 11325 ft | 347 kts | 353° |
| 2026-05-06 07:58 | 14.94243 | 121.06945 | 11549 ft | 358 kts | 353° |
| 2026-05-06 07:58 | 14.96767 | 121.06735 | 11906 ft | 365 kts | 353° |
| 2026-05-06 07:58 | 14.99274 | 121.06527 | 12400 ft | 367 kts | 353° |
| 2026-05-06 07:58 | 15.01839 | 121.06313 | 12932 ft | 368 kts | 354° |
| 2026-05-06 07:59 | 15.04355 | 121.06101 | 13436 ft | 369 kts | 354° |
| 2026-05-06 07:59 | 15.06906 | 121.05888 | 13924 ft | 370 kts | 354° |
| 2026-05-06 07:59 | 15.09480 | 121.05672 | 14389 ft | 372 kts | 354° |
| 2026-05-06 07:59 | 15.12054 | 121.05455 | 14844 ft | 374 kts | 354° |
| 2026-05-06 08:00 | 15.14638 | 121.05238 | 15292 ft | 376 kts | 354° |
| 2026-05-06 08:00 | 15.17248 | 121.05019 | 15734 ft | 378 kts | 354° |
| 2026-05-06 08:00 | 15.19889 | 121.04796 | 16172 ft | 381 kts | 354° |
| 2026-05-06 08:00 | 15.22506 | 121.04576 | 16595 ft | 383 kts | 355° |
| 2026-05-06 08:01 | 15.25145 | 121.04354 | 17013 ft | 385 kts | 355° |
| 2026-05-06 08:01 | 15.27827 | 121.04129 | 17429 ft | 387 kts | 355° |
| 2026-05-06 08:01 | 15.30509 | 121.03903 | 17838 ft | 389 kts | 355° |
| 2026-05-06 08:01 | 15.33211 | 121.03677 | 18240 ft | 391 kts | 355° |
| 2026-05-06 08:02 | 15.35899 | 121.03451 | 18632 ft | 393 kts | 355° |
| 2026-05-06 08:02 | 15.38634 | 121.03221 | 19022 ft | 395 kts | 355° |
| 2026-05-06 08:02 | 15.41390 | 121.02989 | 19404 ft | 398 kts | 355° |
| 2026-05-06 08:02 | 15.44130 | 121.02760 | 19776 ft | 400 kts | 356° |
| 2026-05-06 08:03 | 15.46909 | 121.02799 | 20127 ft | 402 kts | 6° |
| 2026-05-06 08:03 | 15.49641 | 121.03347 | 20484 ft | 404 kts | 16° |
| 2026-05-06 08:03 | 15.52274 | 121.04386 | 20848 ft | 406 kts | 24° |
| 2026-05-06 08:03 | 15.54813 | 121.05621 | 21216 ft | 408 kts | 25° |
| 2026-05-06 08:04 | 15.57347 | 121.06892 | 21561 ft | 410 kts | 25° |
| 2026-05-06 08:04 | 15.59925 | 121.08187 | 21910 ft | 411 kts | 25° |
| 2026-05-06 08:04 | 15.62507 | 121.09481 | 22256 ft | 413 kts | 25° |
| 2026-05-06 08:04 | 15.65071 | 121.10761 | 22593 ft | 415 kts | 25° |
| 2026-05-06 08:05 | 15.67678 | 121.12060 | 22926 ft | 416 kts | 25° |
| 2026-05-06 08:05 | 15.70302 | 121.13366 | 23253 ft | 418 kts | 25° |
| 2026-05-06 08:05 | 15.72912 | 121.14664 | 23576 ft | 420 kts | 25° |
| 2026-05-06 08:05 | 15.75539 | 121.15970 | 23893 ft | 421 kts | 25° |
| 2026-05-06 08:06 | 15.78156 | 121.17271 | 24202 ft | 423 kts | 25° |
| 2026-05-06 08:06 | 15.80831 | 121.18601 | 24515 ft | 425 kts | 25° |
| 2026-05-06 08:07 | 15.88234 | 121.22284 | 25355 ft | 429 kts | 26° |
| 2026-05-06 08:07 | 15.90921 | 121.23621 | 25639 ft | 431 kts | 26° |
| 2026-05-06 08:07 | 15.94517 | 121.25410 | 26004 ft | 433 kts | 26° |
| 2026-05-06 08:07 | 15.97217 | 121.26755 | 26277 ft | 435 kts | 26° |
| 2026-05-06 08:08 | 15.99935 | 121.28109 | 26540 ft | 436 kts | 26° |
| 2026-05-06 08:08 | 16.02685 | 121.29479 | 26799 ft | 438 kts | 26° |
| 2026-05-06 08:08 | 16.05419 | 121.30842 | 27046 ft | 440 kts | 26° |
| 2026-05-06 08:08 | 16.07278 | 121.31769 | 27208 ft | 441 kts | 26° |
| 2026-05-06 08:09 | 16.10012 | 121.33132 | 27462 ft | 442 kts | 26° |
| 2026-05-06 08:09 | 16.13713 | 121.34978 | 27933 ft | 440 kts | 26° |
| 2026-05-06 08:09 | 16.15546 | 121.35892 | 28171 ft | 439 kts | 26° |
| 2026-05-06 08:09 | 16.19165 | 121.37698 | 28615 ft | 438 kts | 27° |
| 2026-05-06 08:10 | 16.21921 | 121.39073 | 28937 ft | 438 kts | 27° |
| 2026-05-06 08:10 | 16.24660 | 121.40441 | 29252 ft | 437 kts | 27° |
| 2026-05-06 08:10 | 16.27397 | 121.41808 | 29561 ft | 436 kts | 27° |
| 2026-05-06 08:10 | 16.30115 | 121.43167 | 29858 ft | 435 kts | 27° |
| 2026-05-06 08:11 | 16.32810 | 121.44514 | 30141 ft | 435 kts | 27° |
| 2026-05-06 08:11 | 16.35518 | 121.45869 | 30419 ft | 435 kts | 27° |
| 2026-05-06 08:11 | 16.38246 | 121.47233 | 30701 ft | 434 kts | 27° |
| 2026-05-06 08:11 | 16.40979 | 121.48601 | 30976 ft | 433 kts | 27° |
| 2026-05-06 08:12 | 16.42783 | 121.49504 | 31149 ft | 433 kts | 27° |
| 2026-05-06 08:12 | 16.46364 | 121.51298 | 31489 ft | 433 kts | 27° |
| 2026-05-06 08:12 | 16.49059 | 121.52647 | 31740 ft | 432 kts | 27° |
| 2026-05-06 08:12 | 16.51771 | 121.54006 | 31991 ft | 432 kts | 27° |
| 2026-05-06 08:13 | 16.54453 | 121.55351 | 32228 ft | 432 kts | 28° |
| 2026-05-06 08:13 | 16.57155 | 121.56705 | 32459 ft | 432 kts | 28° |
| 2026-05-06 08:13 | 16.59866 | 121.58065 | 32689 ft | 431 kts | 28° |
| 2026-05-06 08:13 | 16.62550 | 121.59411 | 32914 ft | 431 kts | 28° |
| 2026-05-06 08:14 | 16.65251 | 121.60767 | 33126 ft | 431 kts | 28° |
| 2026-05-06 08:14 | 16.67042 | 121.61666 | 33250 ft | 431 kts | 28° |
| 2026-05-06 08:14 | 16.70624 | 121.63465 | 33474 ft | 432 kts | 28° |
| 2026-05-06 08:14 | 16.73338 | 121.64829 | 33635 ft | 433 kts | 28° |
| 2026-05-06 08:15 | 16.76039 | 121.66187 | 33801 ft | 434 kts | 28° |
| 2026-05-06 08:15 | 16.78744 | 121.67546 | 33974 ft | 435 kts | 28° |
| 2026-05-06 08:15 | 16.81481 | 121.68922 | 34141 ft | 435 kts | 28° |
| 2026-05-06 08:15 | 16.84183 | 121.70283 | 34301 ft | 436 kts | 28° |
| 2026-05-06 08:16 | 16.86013 | 121.71204 | 34411 ft | 436 kts | 28° |
| 2026-05-06 08:16 | 16.89634 | 121.73026 | 34620 ft | 437 kts | 28° |
| 2026-05-06 08:16 | 16.92368 | 121.74403 | 34768 ft | 437 kts | 28° |
| 2026-05-06 08:16 | 16.95094 | 121.75800 | 34858 ft | 438 kts | 29° |
| 2026-05-06 08:17 | 17.00528 | 121.78683 | 34863 ft | 440 kts | 30° |
| 2026-05-06 08:17 | 17.05975 | 121.81586 | 34864 ft | 444 kts | 29° |
| 2026-05-06 08:18 | 17.11470 | 121.84512 | 34865 ft | 448 kts | 29° |
| 2026-05-06 08:18 | 17.17039 | 121.87474 | 34866 ft | 450 kts | 29° |
| 2026-05-06 08:19 | 17.22600 | 121.90432 | 34866 ft | 450 kts | 29° |
| 2026-05-06 08:19 | 17.28163 | 121.93394 | 34866 ft | 450 kts | 29° |
| 2026-05-06 08:20 | 17.33721 | 121.96355 | 34866 ft | 450 kts | 29° |
| 2026-05-06 08:20 | 17.39308 | 121.99335 | 34867 ft | 450 kts | 29° |
| 2026-05-06 08:21 | 17.43939 | 122.01806 | 34867 ft | 450 kts | 29° |
| 2026-05-06 08:21 | 17.49477 | 122.04762 | 34867 ft | 450 kts | 29° |
| 2026-05-06 08:22 | 17.55955 | 122.08225 | 34866 ft | 450 kts | 29° |
| 2026-05-06 08:22 | 17.61535 | 122.11208 | 34867 ft | 450 kts | 29° |
| 2026-05-06 08:23 | 17.67106 | 122.14190 | 34867 ft | 450 kts | 29° |
| 2026-05-06 08:23 | 17.72651 | 122.17160 | 34866 ft | 450 kts | 29° |
| 2026-05-06 08:24 | 17.78182 | 122.20126 | 34866 ft | 450 kts | 29° |
| 2026-05-06 08:24 | 17.83737 | 122.23105 | 34866 ft | 450 kts | 29° |
| 2026-05-06 08:25 | 17.89347 | 122.26031 | 34866 ft | 450 kts | 28° |
| 2026-05-06 08:25 | 17.94014 | 122.28444 | 34866 ft | 450 kts | 28° |
| 2026-05-06 08:26 | 18.00543 | 122.31832 | 34866 ft | 450 kts | 28° |
| 2026-05-06 08:26 | 18.06125 | 122.34734 | 34866 ft | 450 kts | 28° |
| 2026-05-06 08:27 | 18.11726 | 122.37650 | 34866 ft | 450 kts | 28° |
| 2026-05-06 08:27 | 18.16395 | 122.40083 | 34867 ft | 450 kts | 28° |
| 2026-05-06 08:28 | 18.21984 | 122.42998 | 34867 ft | 450 kts | 28° |
| 2026-05-06 08:28 | 18.28511 | 122.46403 | 34867 ft | 450 kts | 28° |
| 2026-05-06 08:29 | 18.34096 | 122.49321 | 34867 ft | 450 kts | 28° |
| 2026-05-06 08:29 | 18.39693 | 122.52246 | 34867 ft | 450 kts | 28° |
| 2026-05-06 08:30 | 18.45270 | 122.55164 | 34867 ft | 450 kts | 28° |
| 2026-05-06 08:30 | 18.49915 | 122.57594 | 34867 ft | 450 kts | 28° |
| 2026-05-06 08:31 | 18.56435 | 122.61009 | 34866 ft | 450 kts | 28° |
| 2026-05-06 08:31 | 18.62024 | 122.63940 | 34866 ft | 450 kts | 28° |
| 2026-05-06 08:32 | 18.66710 | 122.66398 | 34867 ft | 450 kts | 28° |
| 2026-05-06 08:32 | 18.73206 | 122.69807 | 34867 ft | 450 kts | 28° |
| 2026-05-06 08:33 | 18.78785 | 122.72739 | 34867 ft | 450 kts | 28° |
| 2026-05-06 08:33 | 18.84368 | 122.75674 | 34867 ft | 450 kts | 28° |
| 2026-05-06 08:34 | 18.92736 | 122.80079 | 34867 ft | 449 kts | 28° |
| 2026-05-06 08:35 | 18.98320 | 122.83023 | 34867 ft | 447 kts | 28° |
| 2026-05-06 08:35 | 19.03846 | 122.85938 | 34867 ft | 445 kts | 28° |
| 2026-05-06 08:36 | 19.09336 | 122.88831 | 34867 ft | 444 kts | 27° |
| 2026-05-06 08:36 | 19.14851 | 122.91741 | 34867 ft | 443 kts | 27° |
| 2026-05-06 08:37 | 19.20343 | 122.94643 | 34867 ft | 442 kts | 27° |
| 2026-05-06 08:37 | 19.25814 | 122.97535 | 34867 ft | 441 kts | 27° |
| 2026-05-06 08:38 | 19.31283 | 123.00429 | 34867 ft | 439 kts | 27° |
| 2026-05-06 08:38 | 19.36700 | 123.03297 | 34867 ft | 438 kts | 27° |
| 2026-05-06 08:39 | 19.42104 | 123.06162 | 34867 ft | 437 kts | 27° |
| 2026-05-06 08:39 | 19.46621 | 123.08557 | 34867 ft | 436 kts | 27° |
| 2026-05-06 08:40 | 19.52906 | 123.11893 | 34867 ft | 434 kts | 27° |
| 2026-05-06 08:40 | 19.57379 | 123.14267 | 34867 ft | 434 kts | 27° |
| 2026-05-06 08:41 | 19.63647 | 123.17596 | 34866 ft | 434 kts | 27° |
| 2026-05-06 08:41 | 19.68158 | 123.19996 | 34866 ft | 434 kts | 27° |
| 2026-05-06 08:42 | 19.73506 | 123.22842 | 34866 ft | 434 kts | 27° |
| 2026-05-06 08:42 | 19.78874 | 123.25701 | 34866 ft | 434 kts | 27° |
| 2026-05-06 08:43 | 19.80695 | 123.26672 | 34866 ft | 434 kts | 27° |
| 2026-05-06 08:43 | 19.89625 | 123.31435 | 34866 ft | 434 kts | 27° |
| 2026-05-06 08:44 | 19.95907 | 123.34789 | 34866 ft | 434 kts | 27° |
| 2026-05-06 08:44 | 20.00372 | 123.37174 | 34866 ft | 434 kts | 27° |
| 2026-05-06 08:45 | 20.06634 | 123.40523 | 34874 ft | 434 kts | 27° |
| 2026-05-06 08:45 | 20.11106 | 123.42915 | 34889 ft | 434 kts | 27° |
| 2026-05-06 08:46 | 20.16476 | 123.45792 | 34913 ft | 433 kts | 27° |
| 2026-05-06 08:46 | 20.22749 | 123.49153 | 34936 ft | 433 kts | 27° |
| 2026-05-06 08:47 | 20.28105 | 123.52026 | 34945 ft | 433 kts | 27° |
| 2026-05-06 08:47 | 20.33476 | 123.54909 | 34949 ft | 433 kts | 27° |
| 2026-05-06 08:48 | 20.38817 | 123.57779 | 34949 ft | 433 kts | 27° |
| 2026-05-06 08:48 | 20.44188 | 123.60667 | 34950 ft | 433 kts | 27° |
| 2026-05-06 08:49 | 20.49527 | 123.63540 | 34950 ft | 433 kts | 27° |
| 2026-05-06 08:49 | 20.54895 | 123.66431 | 34950 ft | 433 kts | 27° |
| 2026-05-06 08:50 | 20.60231 | 123.69307 | 34950 ft | 433 kts | 27° |
| 2026-05-06 08:50 | 20.65582 | 123.72194 | 34950 ft | 433 kts | 27° |
| 2026-05-06 08:51 | 20.70072 | 123.74618 | 34950 ft | 433 kts | 27° |
| 2026-05-06 08:51 | 20.75419 | 123.77506 | 34950 ft | 433 kts | 27° |
| 2026-05-06 08:52 | 20.81656 | 123.80879 | 34950 ft | 433 kts | 27° |
| 2026-05-06 08:52 | 20.86993 | 123.83768 | 34950 ft | 433 kts | 27° |
| 2026-05-06 08:53 | 20.92368 | 123.86681 | 34950 ft | 433 kts | 27° |
| 2026-05-06 08:53 | 20.97711 | 123.89578 | 34949 ft | 433 kts | 27° |
| 2026-05-06 08:54 | 21.03076 | 123.92477 | 34948 ft | 435 kts | 27° |
| 2026-05-06 08:54 | 21.08484 | 123.95396 | 34948 ft | 439 kts | 28° |
| 2026-05-06 08:55 | 21.13977 | 123.98369 | 34949 ft | 442 kts | 28° |
| 2026-05-06 08:55 | 21.19423 | 124.01321 | 34949 ft | 443 kts | 28° |
| 2026-05-06 08:56 | 21.24912 | 124.04298 | 34950 ft | 443 kts | 28° |
| 2026-05-06 08:56 | 21.30390 | 124.07272 | 34950 ft | 443 kts | 28° |
| 2026-05-06 08:57 | 21.35887 | 124.10258 | 34950 ft | 443 kts | 28° |
| 2026-05-06 08:57 | 21.41363 | 124.13235 | 34950 ft | 443 kts | 28° |
| 2026-05-06 08:58 | 21.45907 | 124.15707 | 34950 ft | 443 kts | 28° |
| 2026-05-06 08:58 | 21.52313 | 124.19196 | 34950 ft | 443 kts | 28° |
| 2026-05-06 08:59 | 21.57768 | 124.22169 | 34950 ft | 443 kts | 28° |
| 2026-05-06 08:59 | 21.63248 | 124.25158 | 34950 ft | 443 kts | 28° |
| 2026-05-06 09:00 | 21.68736 | 124.28154 | 34950 ft | 443 kts | 28° |
| 2026-05-06 09:00 | 21.74194 | 124.31137 | 34950 ft | 443 kts | 28° |
| 2026-05-06 09:01 | 21.79672 | 124.34133 | 34950 ft | 443 kts | 28° |
| 2026-05-06 09:01 | 21.85125 | 124.37118 | 34950 ft | 443 kts | 28° |
| 2026-05-06 09:02 | 21.90617 | 124.40127 | 34950 ft | 443 kts | 28° |
| 2026-05-06 09:02 | 21.96095 | 124.43130 | 34949 ft | 443 kts | 28° |
| 2026-05-06 09:03 | 22.01543 | 124.46121 | 34949 ft | 443 kts | 28° |
| 2026-05-06 09:03 | 22.07029 | 124.49134 | 34949 ft | 443 kts | 28° |
| 2026-05-06 09:04 | 22.12483 | 124.52132 | 34950 ft | 443 kts | 28° |
| 2026-05-06 09:04 | 22.17982 | 124.55157 | 34950 ft | 443 kts | 28° |
| 2026-05-06 09:05 | 22.23417 | 124.58151 | 34950 ft | 443 kts | 28° |
| 2026-05-06 09:05 | 22.27984 | 124.60667 | 34950 ft | 443 kts | 28° |
| 2026-05-06 09:06 | 22.33462 | 124.63689 | 34950 ft | 443 kts | 28° |
| 2026-05-06 09:06 | 22.39829 | 124.67205 | 34950 ft | 443 kts | 28° |
| 2026-05-06 09:07 | 22.45305 | 124.70232 | 34950 ft | 443 kts | 28° |
| 2026-05-06 09:07 | 22.50748 | 124.73243 | 34950 ft | 443 kts | 28° |
| 2026-05-06 09:08 | 22.56221 | 124.76273 | 34950 ft | 443 kts | 28° |
| 2026-05-06 09:08 | 22.61694 | 124.79306 | 34950 ft | 443 kts | 28° |
| 2026-05-06 09:09 | 22.67151 | 124.82332 | 34949 ft | 443 kts | 28° |
| 2026-05-06 09:09 | 22.72630 | 124.85373 | 34949 ft | 444 kts | 29° |
| 2026-05-06 09:10 | 22.77158 | 124.87888 | 34949 ft | 444 kts | 29° |
| 2026-05-06 09:10 | 22.83551 | 124.91444 | 34949 ft | 445 kts | 29° |
| 2026-05-06 09:11 | 22.89056 | 124.94508 | 34949 ft | 446 kts | 29° |
| 2026-05-06 09:11 | 22.94559 | 124.97575 | 34948 ft | 445 kts | 29° |
| 2026-05-06 09:12 | 23.00096 | 125.00666 | 34949 ft | 447 kts | 29° |
| 2026-05-06 09:12 | 23.04692 | 125.03233 | 34949 ft | 449 kts | 29° |
| 2026-05-06 09:13 | 23.10211 | 125.06316 | 34949 ft | 450 kts | 29° |
| 2026-05-06 09:13 | 23.16718 | 125.09953 | 34951 ft | 450 kts | 29° |
| 2026-05-06 09:14 | 23.22267 | 125.13059 | 34954 ft | 450 kts | 29° |
| 2026-05-06 09:14 | 23.27844 | 125.16185 | 34958 ft | 450 kts | 29° |
| 2026-05-06 09:15 | 23.33421 | 125.19313 | 34962 ft | 450 kts | 29° |
| 2026-05-06 09:15 | 23.38949 | 125.22417 | 34965 ft | 450 kts | 29° |
| 2026-05-06 09:16 | 23.44502 | 125.25539 | 34969 ft | 450 kts | 29° |
| 2026-05-06 09:16 | 23.50088 | 125.28683 | 34972 ft | 450 kts | 29° |
| 2026-05-06 09:17 | 23.55615 | 125.31796 | 34975 ft | 450 kts | 29° |
| 2026-05-06 09:17 | 23.61203 | 125.34941 | 34976 ft | 450 kts | 29° |
| 2026-05-06 09:18 | 23.66721 | 125.38050 | 34976 ft | 450 kts | 29° |
| 2026-05-06 09:18 | 23.72287 | 125.41191 | 34976 ft | 450 kts | 29° |
| 2026-05-06 09:19 | 23.77812 | 125.44313 | 34976 ft | 449 kts | 29° |
| 2026-05-06 09:19 | 23.83378 | 125.47462 | 34976 ft | 449 kts | 29° |
| 2026-05-06 09:20 | 23.88905 | 125.50591 | 34976 ft | 449 kts | 29° |
| 2026-05-06 09:20 | 23.94475 | 125.53749 | 34976 ft | 449 kts | 29° |
| 2026-05-06 09:21 | 24.00000 | 125.56883 | 34976 ft | 449 kts | 29° |
| 2026-05-06 09:21 | 24.05558 | 125.60040 | 34976 ft | 449 kts | 29° |
| 2026-05-06 09:22 | 24.11071 | 125.63174 | 34976 ft | 449 kts | 29° |
| 2026-05-06 09:22 | 24.16610 | 125.66325 | 34976 ft | 449 kts | 29° |
| 2026-05-06 09:23 | 24.22136 | 125.69472 | 34976 ft | 449 kts | 29° |
| 2026-05-06 09:23 | 24.27668 | 125.72626 | 34976 ft | 449 kts | 29° |
| 2026-05-06 09:24 | 24.33210 | 125.75788 | 34976 ft | 449 kts | 29° |
| 2026-05-06 09:24 | 24.38760 | 125.78959 | 34976 ft | 449 kts | 29° |
| 2026-05-06 09:25 | 24.44175 | 125.82056 | 34976 ft | 449 kts | 29° |
| 2026-05-06 09:25 | 24.49707 | 125.85222 | 34976 ft | 449 kts | 29° |
| 2026-05-06 09:26 | 24.55257 | 125.88402 | 34976 ft | 449 kts | 29° |
| 2026-05-06 09:26 | 24.60830 | 125.91599 | 34976 ft | 449 kts | 29° |
| 2026-05-06 09:27 | 24.66375 | 125.94782 | 34976 ft | 449 kts | 29° |
| 2026-05-06 09:27 | 24.71908 | 125.97961 | 34976 ft | 449 kts | 29° |
| 2026-05-06 09:28 | 24.77426 | 126.01137 | 34976 ft | 449 kts | 29° |
| 2026-05-06 09:28 | 24.82919 | 126.04300 | 34976 ft | 449 kts | 29° |
| 2026-05-06 09:29 | 24.88424 | 126.07473 | 34976 ft | 449 kts | 29° |
| 2026-05-06 09:29 | 24.93942 | 126.10657 | 34976 ft | 449 kts | 29° |
| 2026-05-06 09:30 | 24.99505 | 126.13872 | 34974 ft | 451 kts | 29° |
| 2026-05-06 09:30 | 25.05126 | 126.17132 | 34975 ft | 456 kts | 28° |
| 2026-05-06 09:31 | 25.10787 | 126.20412 | 34976 ft | 457 kts | 27° |
| 2026-05-06 09:31 | 25.16384 | 126.23650 | 34976 ft | 455 kts | 27° |
| 2026-05-06 09:32 | 25.21991 | 126.26897 | 34976 ft | 455 kts | 27° |
| 2026-05-06 09:32 | 25.27564 | 126.30130 | 34976 ft | 455 kts | 27° |
| 2026-05-06 09:33 | 25.33119 | 126.33358 | 34976 ft | 455 kts | 27° |
| 2026-05-06 09:33 | 25.38710 | 126.36611 | 34976 ft | 455 kts | 27° |
| 2026-05-06 09:34 | 25.44327 | 126.39883 | 34976 ft | 455 kts | 27° |
| 2026-05-06 09:34 | 25.49915 | 126.43142 | 34976 ft | 455 kts | 27° |
| 2026-05-06 09:35 | 25.55524 | 126.46416 | 34976 ft | 455 kts | 27° |
| 2026-05-06 09:35 | 25.61100 | 126.49674 | 34976 ft | 455 kts | 27° |
| 2026-05-06 09:36 | 25.66657 | 126.52925 | 34976 ft | 455 kts | 27° |
| 2026-05-06 09:36 | 25.72238 | 126.56194 | 34976 ft | 455 kts | 27° |
| 2026-05-06 09:37 | 25.77821 | 126.59467 | 34976 ft | 455 kts | 27° |
| 2026-05-06 09:37 | 25.83398 | 126.62740 | 34976 ft | 455 kts | 27° |
| 2026-05-06 09:38 | 25.88952 | 126.66003 | 34976 ft | 455 kts | 28° |
| 2026-05-06 09:38 | 25.94558 | 126.69299 | 34976 ft | 455 kts | 28° |
| 2026-05-06 09:39 | 26.00097 | 126.72559 | 34976 ft | 455 kts | 28° |
| 2026-05-06 09:39 | 26.05670 | 126.75844 | 34976 ft | 455 kts | 28° |
| 2026-05-06 09:40 | 26.11240 | 126.79130 | 34976 ft | 455 kts | 28° |
| 2026-05-06 09:40 | 26.19613 | 126.84077 | 34976 ft | 455 kts | 28° |
| 2026-05-06 09:41 | 26.25193 | 126.87379 | 34976 ft | 454 kts | 28° |
| 2026-05-06 09:41 | 26.30778 | 126.90688 | 34976 ft | 454 kts | 28° |
| 2026-05-06 09:42 | 26.36322 | 126.93974 | 34976 ft | 454 kts | 28° |
| 2026-05-06 09:42 | 26.41901 | 126.97285 | 34976 ft | 454 kts | 28° |
| 2026-05-06 09:43 | 26.47264 | 127.00472 | 34976 ft | 454 kts | 28° |
| 2026-05-06 09:43 | 26.52743 | 127.03730 | 34976 ft | 454 kts | 28° |
| 2026-05-06 09:44 | 26.58308 | 127.07044 | 34976 ft | 454 kts | 28° |
| 2026-05-06 09:44 | 26.63001 | 127.09841 | 34979 ft | 454 kts | 28° |
| 2026-05-06 09:45 | 26.69657 | 127.13814 | 34988 ft | 454 kts | 28° |
| 2026-05-06 09:45 | 26.74364 | 127.16625 | 34996 ft | 453 kts | 28° |
| 2026-05-06 09:46 | 26.80048 | 127.20026 | 35004 ft | 453 kts | 28° |
| 2026-05-06 09:46 | 26.86602 | 127.23951 | 35009 ft | 453 kts | 28° |
| 2026-05-06 09:47 | 26.92251 | 127.27339 | 35009 ft | 454 kts | 28° |
| 2026-05-06 09:47 | 26.97885 | 127.30727 | 35009 ft | 459 kts | 27° |
| 2026-05-06 09:48 | 27.03602 | 127.34172 | 35012 ft | 460 kts | 26° |
| 2026-05-06 09:48 | 27.09320 | 127.37609 | 35011 ft | 459 kts | 26° |
| 2026-05-06 09:49 | 27.15038 | 127.41045 | 35011 ft | 459 kts | 26° |
| 2026-05-06 09:49 | 27.20766 | 127.44497 | 35011 ft | 459 kts | 26° |
| 2026-05-06 09:50 | 27.26578 | 127.48007 | 35012 ft | 459 kts | 26° |
| 2026-05-06 09:50 | 27.32351 | 127.51498 | 35012 ft | 459 kts | 26° |
| 2026-05-06 09:51 | 27.38106 | 127.54984 | 35012 ft | 459 kts | 26° |
| 2026-05-06 09:51 | 27.43777 | 127.58421 | 35011 ft | 459 kts | 26° |
| 2026-05-06 09:52 | 27.48424 | 127.61410 | 35011 ft | 460 kts | 30° |
| 2026-05-06 09:52 | 27.54650 | 127.66395 | 35011 ft | 461 kts | 36° |
| 2026-05-06 09:53 | 27.59736 | 127.70756 | 35011 ft | 461 kts | 36° |
| 2026-05-06 09:53 | 27.64985 | 127.75258 | 35011 ft | 461 kts | 36° |
| 2026-05-06 09:54 | 27.70048 | 127.79595 | 35011 ft | 461 kts | 36° |
| 2026-05-06 09:54 | 27.74986 | 127.83826 | 35010 ft | 461 kts | 36° |
| 2026-05-06 09:55 | 27.80030 | 127.88152 | 35008 ft | 461 kts | 36° |
| 2026-05-06 09:55 | 27.84734 | 127.92190 | 35007 ft | 461 kts | 36° |
| 2026-05-06 09:56 | 27.89632 | 127.96401 | 35007 ft | 461 kts | 36° |
| 2026-05-06 09:56 | 27.94517 | 128.00603 | 35006 ft | 461 kts | 36° |
| 2026-05-06 09:57 | 27.99344 | 128.04761 | 35006 ft | 461 kts | 36° |
| 2026-05-06 09:57 | 28.04296 | 128.09032 | 35006 ft | 461 kts | 36° |
| 2026-05-06 09:58 | 28.09138 | 128.13214 | 35006 ft | 461 kts | 36° |
| 2026-05-06 09:58 | 28.14024 | 128.17438 | 35006 ft | 461 kts | 36° |
| 2026-05-06 09:59 | 28.18062 | 128.20932 | 35006 ft | 461 kts | 36° |
| 2026-05-06 09:59 | 28.23651 | 128.25774 | 35006 ft | 461 kts | 36° |
| 2026-05-06 10:00 | 28.27505 | 128.29117 | 35006 ft | 461 kts | 36° |
| 2026-05-06 10:00 | 28.32446 | 128.33408 | 35006 ft | 461 kts | 36° |
| 2026-05-06 10:01 | 28.38126 | 128.38347 | 35006 ft | 461 kts | 36° |
| 2026-05-06 10:01 | 28.42114 | 128.41818 | 35006 ft | 461 kts | 36° |
| 2026-05-06 10:02 | 28.47522 | 128.46532 | 35006 ft | 461 kts | 36° |
| 2026-05-06 10:02 | 28.52168 | 128.50584 | 35006 ft | 461 kts | 36° |
| 2026-05-06 10:03 | 28.56810 | 128.54640 | 35004 ft | 461 kts | 36° |
| 2026-05-06 10:03 | 28.61344 | 128.58606 | 35001 ft | 460 kts | 36° |
| 2026-05-06 10:04 | 28.65989 | 128.62672 | 34995 ft | 461 kts | 36° |
| 2026-05-06 10:04 | 28.70620 | 128.66731 | 34988 ft | 461 kts | 36° |
| 2026-05-06 10:05 | 28.74439 | 128.70082 | 34985 ft | 461 kts | 36° |
| 2026-05-06 10:05 | 28.79031 | 128.74116 | 34981 ft | 461 kts | 36° |
| 2026-05-06 10:06 | 28.84432 | 128.78865 | 34979 ft | 461 kts | 36° |
| 2026-05-06 10:06 | 28.89071 | 128.82950 | 34978 ft | 461 kts | 36° |
| 2026-05-06 10:07 | 28.92924 | 128.86346 | 34978 ft | 461 kts | 36° |
| 2026-05-06 10:07 | 28.98307 | 128.91098 | 34979 ft | 460 kts | 36° |
| 2026-05-06 10:08 | 29.02888 | 128.95149 | 34979 ft | 458 kts | 36° |
| 2026-05-06 10:08 | 29.07449 | 128.99182 | 34979 ft | 456 kts | 36° |
| 2026-05-06 10:09 | 29.11192 | 129.02498 | 34979 ft | 455 kts | 36° |
| 2026-05-06 10:09 | 29.15696 | 129.06490 | 34977 ft | 455 kts | 36° |
| 2026-05-06 10:10 | 29.20160 | 129.10451 | 34978 ft | 455 kts | 36° |
| 2026-05-06 10:10 | 29.24714 | 129.14497 | 34977 ft | 456 kts | 36° |
| 2026-05-06 10:11 | 29.29258 | 129.18539 | 34978 ft | 456 kts | 36° |
| 2026-05-06 10:11 | 29.34522 | 129.23227 | 34981 ft | 456 kts | 36° |
| 2026-05-06 10:12 | 29.39072 | 129.27286 | 34998 ft | 456 kts | 36° |
| 2026-05-06 10:12 | 29.43583 | 129.31314 | 35012 ft | 456 kts | 36° |
| 2026-05-06 10:13 | 29.48077 | 129.35330 | 35020 ft | 456 kts | 36° |
| 2026-05-06 10:13 | 29.52578 | 129.39359 | 35024 ft | 456 kts | 36° |
| 2026-05-06 10:14 | 29.57065 | 129.43379 | 35028 ft | 456 kts | 36° |
| 2026-05-06 10:14 | 29.61572 | 129.47423 | 35029 ft | 456 kts | 36° |
| 2026-05-06 10:15 | 29.66060 | 129.51453 | 35030 ft | 456 kts | 36° |
| 2026-05-06 10:15 | 29.70529 | 129.55472 | 35030 ft | 456 kts | 36° |
| 2026-05-06 10:16 | 29.74241 | 129.58813 | 35031 ft | 456 kts | 36° |
| 2026-05-06 10:16 | 29.78609 | 129.62749 | 35031 ft | 456 kts | 36° |
| 2026-05-06 10:17 | 29.83779 | 129.67415 | 35031 ft | 456 kts | 36° |
| 2026-05-06 10:17 | 29.88119 | 129.71336 | 35033 ft | 456 kts | 36° |
| 2026-05-06 10:18 | 29.92586 | 129.75377 | 35037 ft | 455 kts | 36° |
| 2026-05-06 10:18 | 29.97277 | 129.78949 | 35041 ft | 453 kts | 27° |
| 2026-05-06 10:19 | 30.02217 | 129.81505 | 35046 ft | 451 kts | 17° |